Time;durP1;ratioP1;P1;durP2;ratioP2;P2;SDS_P1;SDS_P2;PMS_P1;PMS_P2;Temp;Humidity;BMP_temperature;BMP_pressure;BME280_temperature;BME280_humidity;BME280_pressure;Samples;Min_cycle;Max_cycle;Signal;HPM_P1;HPM_P2
2023/05/26 00:00:18;;;;;;;9.25;7.40;;;12.20;99.90;;;;;;4972965;28;20023;-73
2023/05/26 00:02:45;;;;;;;11.13;8.00;;;12.10;99.90;;;;;;4972064;28;20067;-73
2023/05/26 00:05:13;;;;;;;13.90;8.00;;;12.10;99.90;;;;;;4993232;28;20391;-74
2023/05/26 00:07:40;;;;;;;10.25;7.80;;;12.10;99.90;;;;;;4996142;28;20446;-73
2023/05/26 00:10:09;;;;;;;11.70;9.13;;;12.00;99.90;;;;;;4991811;28;20019;-73
2023/05/26 00:12:35;;;;;;;10.82;8.00;;;12.00;99.90;;;;;;4995606;28;20027;-73
2023/05/26 00:15:01;;;;;;;10.27;7.80;;;12.00;99.90;;;;;;4992241;28;20027;-74
2023/05/26 00:17:27;;;;;;;9.85;8.20;;;12.00;99.90;;;;;;4995675;28;20064;-74
2023/05/26 00:19:52;;;;;;;15.32;9.20;;;12.00;99.90;;;;;;4972772;28;20042;-74
2023/05/26 00:22:18;;;;;;;17.25;9.70;;;12.10;99.90;;;;;;4978356;28;20026;-74
2023/05/26 00:24:45;;;;;;;15.40;10.50;;;12.10;99.90;;;;;;4992068;28;20019;-74
2023/05/26 00:27:11;;;;;;;14.18;10.73;;;12.20;99.90;;;;;;4978027;28;20034;-74
2023/05/26 00:29:37;;;;;;;18.60;12.82;;;12.20;99.90;;;;;;4974905;28;20026;-74
2023/05/26 00:32:06;;;;;;;22.77;13.27;;;12.40;99.90;;;;;;4995704;28;20037;-74
2023/05/26 00:34:33;;;;;;;22.17;14.57;;;12.40;99.90;;;;;;4992545;28;20046;-74
2023/05/26 00:37:02;;;;;;;23.25;13.38;;;12.50;99.90;;;;;;4995331;28;20038;-74
2023/05/26 00:39:29;;;;;;;17.70;12.40;;;12.60;99.90;;;;;;4972873;28;20037;-74
2023/05/26 00:41:55;;;;;;;21.35;12.52;;;12.70;99.90;;;;;;4988228;28;20032;-74
2023/05/26 00:44:22;;;;;;;19.15;11.63;;;12.60;99.90;;;;;;4992261;28;20045;-74
2023/05/26 00:46:48;;;;;;;16.30;10.20;;;12.70;99.90;;;;;;4994993;28;20034;-74
2023/05/26 00:49:13;;;;;;;15.43;9.77;;;12.60;99.90;;;;;;4993063;28;20101;-74
2023/05/26 00:51:40;;;;;;;20.90;10.02;;;12.70;99.90;;;;;;4995793;28;20073;-74
2023/05/26 00:54:07;;;;;;;17.02;10.65;;;12.70;99.90;;;;;;4992889;28;20019;-74
2023/05/26 00:56:35;;;;;;;13.85;10.85;;;12.80;99.90;;;;;;4995556;28;20054;-74
2023/05/26 00:59:02;;;;;;;12.80;9.50;;;12.90;99.90;;;;;;4964370;28;20018;-74
2023/05/26 01:01:29;;;;;;;15.73;9.68;;;13.00;99.90;;;;;;4995279;28;20062;-74
2023/05/26 01:03:55;;;;;;;12.43;9.43;;;13.10;99.90;;;;;;4992659;28;20458;-74
2023/05/26 01:06:22;;;;;;;11.07;8.65;;;13.10;99.90;;;;;;4995086;28;20030;-74
2023/05/26 01:08:48;;;;;;;15.00;9.88;;;13.10;99.90;;;;;;4992230;28;20037;-74
2023/05/26 01:11:21;;;;;;;16.13;9.80;;;13.20;99.90;;;;;;4994933;28;20402;-74
2023/05/26 01:13:53;;;;;;;14.18;10.48;;;13.20;99.90;;;;;;4991345;28;20064;-74
2023/05/26 01:16:22;;;;;;;13.30;10.00;;;13.30;99.90;;;;;;4993245;28;20022;-74
2023/05/26 01:19:06;;;;;;;17.65;11.32;;;13.30;99.90;;;;;;4994941;28;20026;-74
2023/05/26 01:21:33;;;;;;;24.70;12.23;;;13.40;99.90;;;;;;4993103;28;20023;-74
2023/05/26 01:24:18;;;;;;;20.08;11.68;;;13.40;99.90;;;;;;4995454;28;20497;-74
2023/05/26 01:27:01;;;;;;;18.25;11.35;;;13.50;99.90;;;;;;4974995;28;20026;-74
2023/05/26 01:29:29;;;;;;;17.77;12.52;;;13.50;99.90;;;;;;4975709;28;20034;-74
2023/05/26 01:32:08;;;;;;;18.95;12.90;;;13.60;99.90;;;;;;4995591;28;20101;-74
2023/05/26 01:34:34;;;;;;;20.35;13.85;;;13.60;99.90;;;;;;4975627;28;20413;-74
2023/05/26 01:36:59;;;;;;;21.15;14.45;;;13.70;99.90;;;;;;4978064;28;20059;-74
2023/05/26 01:39:25;;;;;;;17.80;13.13;;;13.70;99.90;;;;;;4993387;28;20015;-74
2023/05/26 01:42:14;;;;;;;17.33;13.40;;;13.80;99.90;;;;;;4995699;28;20023;-74
2023/05/26 01:44:50;;;;;;;18.38;12.95;;;13.80;99.90;;;;;;4995149;28;20470;-74
2023/05/26 01:47:16;;;;;;;20.33;13.60;;;13.80;99.90;;;;;;4993341;28;20498;-74
2023/05/26 01:49:46;;;;;;;19.63;13.02;;;13.90;99.90;;;;;;4995806;28;20030;-74
2023/05/26 01:52:17;;;;;;;21.73;15.35;;;13.90;99.90;;;;;;4993716;28;20019;-74
2023/05/26 01:54:48;;;;;;;19.80;14.50;;;13.90;99.90;;;;;;4995388;28;20057;-74
2023/05/26 01:57:16;;;;;;;22.00;14.98;;;14.00;99.90;;;;;;4987886;28;20049;-75
2023/05/26 01:59:42;;;;;;;21.10;14.00;;;14.00;99.90;;;;;;5006371;28;20033;-74
2023/05/26 02:02:07;;;;;;;16.30;13.98;;;14.00;99.90;;;;;;5011519;28;20023;-74
2023/05/26 02:04:33;;;;;;;16.08;12.63;;;14.10;99.90;;;;;;5005503;28;20034;-74
2023/05/26 02:07:02;;;;;;;18.63;13.13;;;14.00;99.90;;;;;;5010195;28;20443;-74
2023/05/26 02:09:29;;;;;;;18.95;12.02;;;14.00;99.90;;;;;;4996829;28;20077;-74
2023/05/26 02:11:55;;;;;;;17.02;13.38;;;14.00;99.90;;;;;;5011467;28;20025;-74
2023/05/26 02:14:20;;;;;;;17.23;12.73;;;14.00;99.90;;;;;;5014030;28;20053;-74
2023/05/26 02:16:46;;;;;;;20.92;13.32;;;14.00;99.90;;;;;;4993243;28;20046;-74
2023/05/26 02:19:12;;;;;;;18.73;13.68;;;13.90;99.90;;;;;;5016313;28;20461;-74
2023/05/26 02:21:39;;;;;;;21.33;14.60;;;13.90;99.90;;;;;;5014412;28;20010;-74
2023/05/26 02:24:04;;;;;;;20.23;13.27;;;13.80;99.90;;;;;;5016969;28;20026;-74
2023/05/26 02:26:30;;;;;;;21.35;13.25;;;13.80;99.90;;;;;;5014410;28;20489;-74
2023/05/26 02:28:56;;;;;;;17.35;13.10;;;13.80;99.90;;;;;;5012514;28;20022;-74
2023/05/26 02:31:22;;;;;;;17.02;13.30;;;13.70;99.90;;;;;;5004261;28;20392;-74
2023/05/26 02:33:49;;;;;;;18.73;13.60;;;13.60;99.90;;;;;;5007119;28;20076;-74
2023/05/26 02:36:15;;;;;;;19.30;13.90;;;13.50;99.90;;;;;;5000644;28;20459;-74
2023/05/26 02:38:41;;;;;;;19.88;13.13;;;13.40;99.90;;;;;;5009133;28;20145;-74
2023/05/26 02:41:07;;;;;;;21.77;13.73;;;13.40;99.90;;;;;;5011559;28;20061;-74
2023/05/26 02:43:33;;;;;;;23.30;15.38;;;13.40;99.90;;;;;;4996437;28;20045;-74
2023/05/26 02:45:59;;;;;;;21.40;15.65;;;13.40;99.90;;;;;;5011097;28;20026;-74
2023/05/26 02:48:25;;;;;;;20.42;14.85;;;13.40;99.90;;;;;;5018335;28;20454;-74
2023/05/26 02:50:51;;;;;;;18.55;14.10;;;13.50;99.90;;;;;;5016277;28;20054;-74
2023/05/26 02:53:18;;;;;;;20.10;14.50;;;13.50;99.90;;;;;;5000657;28;20478;-74
2023/05/26 02:55:44;;;;;;;19.40;14.18;;;13.50;99.90;;;;;;5012437;28;20516;-74
2023/05/26 02:58:11;;;;;;;17.45;12.93;;;13.60;99.90;;;;;;4989200;28;20390;-74
2023/05/26 03:00:36;;;;;;;19.90;12.48;;;13.60;99.90;;;;;;4995121;28;20026;-74
2023/05/26 03:03:02;;;;;;;16.67;11.40;;;13.70;99.90;;;;;;4994412;28;20114;-74
2023/05/26 03:05:28;;;;;;;15.85;12.32;;;13.70;99.90;;;;;;4983177;28;20034;-74
2023/05/26 03:07:53;;;;;;;17.10;11.60;;;13.70;99.90;;;;;;4987712;28;20031;-74
2023/05/26 03:10:19;;;;;;;14.52;10.88;;;13.80;99.90;;;;;;4989859;28;20026;-74
2023/05/26 03:12:45;;;;;;;15.35;10.38;;;13.80;99.90;;;;;;4988500;28;20069;-74
2023/05/26 03:15:11;;;;;;;13.90;10.48;;;13.80;99.90;;;;;;4989847;28;20027;-74
2023/05/26 03:17:37;;;;;;;15.05;10.50;;;13.80;99.90;;;;;;4988294;28;20062;-74
2023/05/26 03:20:04;;;;;;;13.65;11.68;;;13.80;99.90;;;;;;4989923;28;20030;-74
2023/05/26 03:22:29;;;;;;;14.15;11.43;;;13.80;99.90;;;;;;4988156;28;20085;-75
2023/05/26 03:24:55;;;;;;;15.80;10.48;;;13.80;99.90;;;;;;4989018;28;20105;-74
2023/05/26 03:27:26;;;;;;;16.15;10.77;;;13.80;99.90;;;;;;4987165;28;20078;-74
2023/05/26 03:29:51;;;;;;;;;;;13.90;99.90;;;;;;4971098;28;20033;-75
2023/05/26 03:32:17;;;;;;;18.50;10.13;;;13.90;99.90;;;;;;4987104;28;19906;-74
2023/05/26 03:34:44;;;;;;;15.32;10.90;;;13.90;99.90;;;;;;4989393;28;20088;-74
2023/05/26 03:37:11;;;;;;;14.75;10.75;;;14.00;99.90;;;;;;4986811;28;20057;-74
2023/05/26 03:39:37;;;;;;;12.93;10.45;;;14.00;99.90;;;;;;4990297;28;20030;-74
2023/05/26 03:42:03;;;;;;;15.45;10.27;;;14.00;99.90;;;;;;4988179;28;20018;-74
2023/05/26 03:44:29;;;;;;;15.90;10.73;;;14.00;99.90;;;;;;4990173;28;20035;-74
2023/05/26 03:46:54;;;;;;;15.40;11.05;;;13.90;99.90;;;;;;4987895;28;20038;-74
2023/05/26 03:49:20;;;;;;;16.08;11.70;;;14.00;99.90;;;;;;4989075;28;20084;-74
2023/05/26 03:51:46;;;;;;;14.32;10.95;;;14.00;99.90;;;;;;4987520;28;20390;-74
2023/05/26 03:54:11;;;;;;;13.68;10.70;;;14.10;99.90;;;;;;4988598;28;20030;-74
2023/05/26 03:56:37;;;;;;;15.23;10.93;;;14.10;99.90;;;;;;4987151;28;20046;-74
2023/05/26 03:59:03;;;;;;;15.75;10.25;;;14.10;99.90;;;;;;4979842;28;20045;-74
2023/05/26 04:01:29;;;;;;;13.75;10.63;;;14.10;99.90;;;;;;4981474;28;20125;-74
2023/05/26 04:03:55;;;;;;;12.25;10.13;;;14.10;99.90;;;;;;4964460;28;20503;-74
2023/05/26 04:06:22;;;;;;;19.38;11.02;;;14.10;99.90;;;;;;4979619;28;20045;-74
2023/05/26 04:08:48;;;;;;;18.60;10.00;;;14.10;99.90;;;;;;4982403;28;20034;-74
2023/05/26 04:11:17;;;;;;;16.20;11.00;;;14.10;99.90;;;;;;4985993;28;20050;-74
2023/05/26 04:13:44;;;;;;;13.25;10.38;;;14.10;99.90;;;;;;4989119;28;20045;-74
2023/05/26 04:16:10;;;;;;;14.77;11.63;;;14.20;99.90;;;;;;4965353;28;20031;-74
2023/05/26 04:18:36;;;;;;;16.50;12.23;;;14.20;99.90;;;;;;4987057;28;20632;-74
2023/05/26 04:21:03;;;;;;;15.23;10.70;;;14.20;99.90;;;;;;4985754;28;20054;-74
2023/05/26 04:23:29;;;;;;;18.58;10.00;;;14.20;99.90;;;;;;4989527;28;20041;-74
2023/05/26 04:25:55;;;;;;;15.07;10.68;;;14.20;99.90;;;;;;4962255;28;20027;-74
2023/05/26 04:28:21;;;;;;;12.15;9.50;;;14.20;99.90;;;;;;4970872;28;20026;-74
2023/05/26 04:30:47;;;;;;;13.55;9.90;;;14.10;99.90;;;;;;4985803;28;20019;-74
2023/05/26 04:33:15;;;;;;;13.98;9.82;;;14.10;99.90;;;;;;4989508;28;20379;-74
2023/05/26 04:35:44;;;;;;;13.23;8.98;;;14.20;99.90;;;;;;4986014;28;20023;-74
2023/05/26 04:38:12;;;;;;;17.00;10.02;;;14.20;99.90;;;;;;4989564;28;20382;-74
2023/05/26 04:40:38;;;;;;;14.48;9.07;;;14.20;99.90;;;;;;4984069;28;20426;-74
2023/05/26 04:43:05;;;;;;;13.85;9.90;;;14.20;99.90;;;;;;4984616;28;20034;-74
2023/05/26 04:45:31;;;;;;;15.70;8.95;;;14.20;99.90;;;;;;4967159;28;20035;-74
2023/05/26 04:47:59;;;;;;;11.27;8.57;;;14.10;99.90;;;;;;4984712;28;20027;-74
2023/05/26 04:50:25;;;;;;;11.27;8.63;;;14.10;99.90;;;;;;4984350;28;20605;-74
2023/05/26 04:52:50;;;;;;;11.30;8.32;;;14.00;99.90;;;;;;4986772;28;20053;-74
2023/05/26 04:55:16;;;;;;;17.20;9.13;;;14.00;99.90;;;;;;4983596;28;20042;-74
2023/05/26 04:57:43;;;;;;;12.60;8.68;;;14.00;99.90;;;;;;4983716;28;20533;-74
2023/05/26 05:00:10;;;;;;;10.50;7.75;;;14.00;99.90;;;;;;4984467;28;20019;-74
2023/05/26 05:02:36;;;;;;;11.73;8.77;;;14.00;99.90;;;;;;4989836;28;20026;-74
2023/05/26 05:05:03;;;;;;;11.20;8.38;;;14.00;99.90;;;;;;4977697;28;20058;-74
2023/05/26 05:07:28;;;;;;;13.00;8.80;;;14.00;99.90;;;;;;4989344;28;20085;-75
2023/05/26 05:09:54;;;;;;;15.15;9.52;;;14.00;99.90;;;;;;4983895;28;20018;-74
2023/05/26 05:12:20;;;;;;;14.82;9.32;;;14.00;99.90;;;;;;4989316;28;20030;-74
2023/05/26 05:14:45;;;;;;;11.07;8.70;;;14.10;99.90;;;;;;4974605;28;20030;-74
2023/05/26 05:17:11;;;;;;;14.43;8.98;;;14.20;99.90;;;;;;4980161;28;20038;-74
2023/05/26 05:19:37;;;;;;;14.27;8.40;;;14.20;99.90;;;;;;4979056;28;20033;-74
2023/05/26 05:22:03;;;;;;;14.07;9.30;;;14.30;99.90;;;;;;4986513;28;20033;-74
2023/05/26 05:24:28;;;;;;;16.40;8.88;;;14.50;99.90;;;;;;4978270;28;20357;-74
2023/05/26 05:26:54;;;;;;;20.00;11.30;;;14.60;99.90;;;;;;4959554;28;20087;-74
2023/05/26 05:29:20;;;;;;;12.82;9.88;;;14.70;99.90;;;;;;4989786;28;20023;-74
2023/05/26 05:31:45;;;;;;;17.30;9.45;;;14.90;99.90;;;;;;4982097;28;20053;-74
2023/05/26 05:34:11;;;;;;;13.85;9.85;;;15.10;99.90;;;;;;4981356;28;20023;-74
2023/05/26 05:36:37;;;;;;;11.50;9.52;;;15.20;99.90;;;;;;4984042;28;20023;-74
2023/05/26 05:39:03;;;;;;;13.43;10.40;;;15.30;99.90;;;;;;4980978;28;20475;-74
2023/05/26 05:41:28;;;;;;;12.07;9.90;;;15.40;99.90;;;;;;4984131;28;20030;-74
2023/05/26 05:43:56;;;;;;;15.00;9.15;;;15.40;99.90;;;;;;4981083;28;20546;-74
2023/05/26 05:46:24;;;;;;;12.98;10.07;;;15.40;99.90;;;;;;4983704;28;20030;-74
2023/05/26 05:48:49;;;;;;;13.00;8.73;;;15.50;99.90;;;;;;4980812;28;20015;-74
2023/05/26 05:51:15;;;;;;;12.38;8.65;;;15.50;99.90;;;;;;4992382;28;20093;-75
2023/05/26 05:53:41;;;;;;;13.63;8.30;;;15.50;99.90;;;;;;4994299;28;20085;-75
2023/05/26 05:56:06;;;;;;;10.52;8.88;;;15.40;99.90;;;;;;4996525;28;20081;-74
2023/05/26 05:58:32;;;;;;;17.38;9.18;;;15.40;99.90;;;;;;4986336;28;20511;-74
2023/05/26 06:00:58;;;;;;;13.93;8.25;;;15.40;99.90;;;;;;4998622;28;20394;-74
2023/05/26 06:03:25;;;;;;;9.73;8.15;;;15.40;99.90;;;;;;4996597;28;20026;-74
2023/05/26 06:05:50;;;;;;;11.65;8.90;;;15.40;99.90;;;;;;4996934;28;20482;-74
2023/05/26 06:08:16;;;;;;;15.63;8.70;;;15.50;99.90;;;;;;4997140;28;20030;-74
2023/05/26 06:10:43;;;;;;;12.00;8.43;;;15.50;99.90;;;;;;4997848;28;20397;-74
2023/05/26 06:13:08;;;;;;;11.82;9.80;;;15.60;99.90;;;;;;4988797;28;20046;-74
2023/05/26 06:15:34;;;;;;;14.50;10.82;;;15.60;99.90;;;;;;4998171;28;20045;-74
2023/05/26 06:18:00;;;;;;;12.50;9.80;;;15.70;99.90;;;;;;4996311;28;20030;-74
2023/05/26 06:20:25;;;;;;;12.15;8.82;;;15.80;99.90;;;;;;4998295;28;20065;-74
2023/05/26 06:22:51;;;;;;;14.45;10.95;;;15.90;99.90;;;;;;4979143;28;20513;-75
2023/05/26 06:25:16;;;;;;;14.77;10.68;;;15.90;99.90;;;;;;4981610;28;20029;-74
2023/05/26 06:27:42;;;;;;;15.43;10.98;;;16.00;99.90;;;;;;4990595;28;20038;-74
2023/05/26 06:30:08;;;;;;;14.25;10.85;;;16.10;99.90;;;;;;4956562;28;20034;-74
2023/05/26 06:32:34;;;;;;;15.55;12.70;;;16.10;99.90;;;;;;4985481;28;20027;-73
2023/05/26 06:35:00;;;;;;;15.77;12.05;;;16.20;99.90;;;;;;4989346;28;20132;-73
2023/05/26 06:37:25;;;;;;;14.20;11.45;;;16.30;99.90;;;;;;4968031;28;20059;-73
2023/05/26 06:39:51;;;;;;;16.52;11.85;;;16.40;99.90;;;;;;4991088;28;20030;-73
2023/05/26 06:42:16;;;;;;;18.90;12.70;;;16.60;99.90;;;;;;4993369;28;20051;-71
2023/05/26 06:44:42;;;;;;;18.90;12.43;;;16.70;99.90;;;;;;4995882;28;20402;-73
2023/05/26 06:47:09;;;;;;;15.45;11.63;;;16.80;99.90;;;;;;4992189;28;20097;-71
2023/05/26 06:49:35;;;;;;;18.13;11.93;;;16.90;99.90;;;;;;4977422;28;20057;-72
2023/05/26 06:52:00;;;;;;;18.88;12.98;;;17.00;99.90;;;;;;4991307;28;20018;-72
2023/05/26 06:54:26;;;;;;;18.63;11.52;;;17.10;99.90;;;;;;4977008;28;20046;-71
2023/05/26 06:56:52;;;;;;;20.73;13.40;;;17.20;99.90;;;;;;5003525;28;20091;-72
2023/05/26 06:59:17;;;;;;;22.02;14.35;;;17.20;99.90;;;;;;5002111;28;20110;-72
2023/05/26 07:01:43;;;;;;;18.60;13.80;;;17.20;99.90;;;;;;4991944;28;20030;-72
2023/05/26 07:04:09;;;;;;;22.40;13.43;;;17.30;99.90;;;;;;4985659;28;20406;-73
2023/05/26 07:06:35;;;;;;;21.23;15.13;;;17.40;99.90;;;;;;4998652;28;20022;-72
2023/05/26 07:09:01;;;;;;;18.90;14.77;;;17.50;99.90;;;;;;4997771;28;20038;-72
2023/05/26 07:11:27;;;;;;;15.18;12.48;;;17.50;99.90;;;;;;4991867;28;20035;-73
2023/05/26 07:13:52;;;;;;;18.90;13.32;;;17.60;99.90;;;;;;4996895;28;20026;-71
2023/05/26 07:16:18;;;;;;;18.85;12.85;;;17.70;99.90;;;;;;4996911;28;20062;-72
2023/05/26 07:18:44;;;;;;;18.23;12.70;;;17.90;99.90;;;;;;5000430;28;20078;-72
2023/05/26 07:21:09;;;;;;;22.30;14.07;;;18.00;99.90;;;;;;4997587;28;20046;-72
2023/05/26 07:23:35;;;;;;;15.30;11.45;;;18.10;99.90;;;;;;4997701;28;20469;-70
2023/05/26 07:26:01;;;;;;;17.08;10.88;;;18.20;99.90;;;;;;4999878;28;20521;-71
2023/05/26 07:28:26;;;;;;;16.02;11.27;;;18.30;99.90;;;;;;4999396;28;20052;-71
2023/05/26 07:30:52;;;;;;;18.90;12.57;;;18.30;99.90;;;;;;4997724;28;20035;-72
2023/05/26 07:33:18;;;;;;;16.63;11.63;;;18.40;99.90;;;;;;4998436;28;20030;-71
2023/05/26 07:35:43;;;;;;;15.90;11.57;;;18.60;99.90;;;;;;4998929;28;20054;-72
2023/05/26 07:38:09;;;;;;;15.82;10.88;;;18.70;99.90;;;;;;4998468;28;20026;-72
2023/05/26 07:40:35;;;;;;;16.65;10.38;;;18.70;99.90;;;;;;4997804;28;20824;-72
2023/05/26 07:43:02;;;;;;;17.52;11.48;;;18.70;99.90;;;;;;4998192;28;20092;-72
2023/05/26 07:45:28;;;;;;;17.75;11.05;;;18.80;99.90;;;;;;4999926;28;20501;-72
2023/05/26 07:47:54;;;;;;;15.32;10.20;;;18.80;99.90;;;;;;4981919;28;20030;-71
2023/05/26 07:50:20;;;;;;;9.88;8.57;;;18.80;99.90;;;;;;4982648;28;20037;-72
2023/05/26 07:52:45;;;;;;;15.27;9.85;;;18.90;99.90;;;;;;4999240;28;20278;-71
2023/05/26 07:55:11;;;;;;;17.42;9.43;;;18.90;99.90;;;;;;4997898;28;20034;-71
2023/05/26 07:57:37;;;;;;;18.00;9.40;;;19.00;99.90;;;;;;4982435;28;20515;-73
2023/05/26 08:00:03;;;;;;;14.07;9.88;;;19.00;99.90;;;;;;4979132;28;20403;-71
2023/05/26 08:02:29;;;;;;;12.73;9.90;;;19.20;99.90;;;;;;4978270;28;20026;-71
2023/05/26 08:04:55;;;;;;;13.63;7.43;;;19.10;99.90;;;;;;4978394;28;20015;-72
2023/05/26 08:07:21;;;;;;;12.15;8.25;;;19.20;99.90;;;;;;4978488;28;20058;-73
2023/05/26 08:09:46;;;;;;;9.68;7.32;;;19.20;99.90;;;;;;4978495;28;20046;-71
2023/05/26 08:12:12;;;;;;;10.10;7.80;;;19.40;99.90;;;;;;4989690;28;20434;-71
2023/05/26 08:14:38;;;;;;;10.65;7.13;;;19.40;99.90;;;;;;4976682;28;20029;-73
2023/05/26 08:17:04;;;;;;;12.45;7.38;;;19.50;99.90;;;;;;4989127;28;20113;-73
2023/05/26 08:19:29;;;;;;;9.68;7.32;;;19.60;99.90;;;;;;4984151;28;20046;-73
2023/05/26 08:21:55;;;;;;;12.32;7.95;;;19.70;99.90;;;;;;4988488;28;20505;-72
2023/05/26 08:24:22;;;;;;;16.13;6.93;;;19.70;99.90;;;;;;4990564;28;20023;-72
2023/05/26 08:26:49;;;;;;;9.55;7.70;;;19.80;99.90;;;;;;4996008;28;20038;-71
2023/05/26 08:29:15;;;;;;;11.63;7.55;;;19.90;99.90;;;;;;4996419;28;20441;-73
2023/05/26 08:31:40;;;;;;;11.57;7.53;;;19.90;99.90;;;;;;4995826;28;20080;-72
2023/05/26 08:34:06;;;;;;;13.05;7.03;;;20.00;99.90;;;;;;4978802;28;20088;-73
2023/05/26 08:36:33;;;;;;;10.43;7.25;;;19.80;99.90;;;;;;4978701;28;20453;-72
2023/05/26 08:38:58;;;;;;;11.95;7.53;;;19.80;99.90;;;;;;4997043;28;20022;-73
2023/05/26 08:41:28;;;;;;;14.25;7.35;;;20.00;99.90;;;;;;4995265;28;20034;-72
2023/05/26 08:43:59;;;;;;;11.35;7.88;;;20.30;99.90;;;;;;4996513;28;20532;-72
2023/05/26 08:46:25;;;;;;;;;;;20.30;99.90;;;;;;4968601;28;20057;-73
2023/05/26 08:48:53;;;;;;;11.48;7.13;;;20.30;99.90;;;;;;4989990;28;19952;-73
2023/05/26 08:51:18;;;;;;;14.45;7.68;;;20.20;99.90;;;;;;4986655;28;20033;-72
2023/05/26 08:53:45;;;;;;;12.27;8.50;;;20.20;99.90;;;;;;4984709;28;20086;-73
2023/05/26 08:56:11;;;;;;;9.63;7.25;;;20.30;99.90;;;;;;4978332;28;20078;-73
2023/05/26 08:58:38;;;;;;;10.85;7.43;;;20.40;99.90;;;;;;4977210;28;20055;-73
2023/05/26 09:01:04;;;;;;;8.98;7.40;;;20.20;99.90;;;;;;4995248;28;20015;-72
2023/05/26 09:03:30;;;;;;;12.60;7.25;;;20.20;99.90;;;;;;4991456;28;20026;-73
2023/05/26 09:05:56;;;;;;;10.30;7.20;;;20.30;99.90;;;;;;4971194;28;20030;-71
2023/05/26 09:08:22;;;;;;;10.43;7.68;;;20.40;99.90;;;;;;4961584;28;20054;-72
2023/05/26 09:10:47;;;;;;;13.57;7.88;;;20.40;99.90;;;;;;4961092;28;20502;-71
2023/05/26 09:13:14;;;;;;;11.77;7.22;;;20.60;99.90;;;;;;4978674;28;20034;-71
2023/05/26 09:15:41;;;;;;;11.45;7.57;;;20.70;99.90;;;;;;4984313;28;20097;-71
2023/05/26 09:18:15;;;;;;;14.05;7.38;;;20.80;99.90;;;;;;4997141;28;20087;-72
2023/05/26 09:20:42;;;;;;;10.05;5.55;;;21.00;99.90;;;;;;4985769;28;20018;-72
2023/05/26 09:23:08;;;;;;;9.43;7.03;;;21.20;99.90;;;;;;4990749;28;20054;-73
2023/05/26 09:25:35;;;;;;;8.20;5.97;;;21.30;99.90;;;;;;4973094;28;20030;-72
2023/05/26 09:28:07;;;;;;;8.50;6.68;;;21.40;99.90;;;;;;4985291;28;20023;-72
2023/05/26 09:30:41;;;;;;;9.10;5.97;;;21.40;99.90;;;;;;4989982;28;20458;-72
2023/05/26 09:33:10;;;;;;;8.48;6.22;;;21.50;99.90;;;;;;4987514;28;20033;-73
2023/05/26 09:35:37;;;;;;;8.93;6.45;;;21.50;99.90;;;;;;4987884;28;20027;-72
2023/05/26 09:38:07;;;;;;;11.30;6.97;;;21.40;99.90;;;;;;4987550;28;20041;-72
2023/05/26 09:40:33;;;;;;;;;;;21.40;99.90;;;;;;4986533;28;20015;-72
2023/05/26 09:43:00;;;;;;;10.27;6.38;;;21.60;99.90;;;;;;4987455;28;20329;-73
2023/05/26 09:45:26;;;;;;;10.02;6.82;;;21.80;99.90;;;;;;4985853;28;20489;-72
2023/05/26 09:47:56;;;;;;;9.73;6.15;;;21.90;99.90;;;;;;4969524;28;20398;-72
2023/05/26 09:50:22;;;;;;;10.45;5.95;;;22.10;99.90;;;;;;4976448;28;20039;-72
2023/05/26 09:52:49;;;;;;;8.85;5.80;;;22.20;99.90;;;;;;4977672;28;20026;-72
2023/05/26 09:55:15;;;;;;;8.75;6.20;;;22.20;99.90;;;;;;4983923;28;20486;-72
2023/05/26 09:57:44;;;;;;;7.10;5.30;;;22.10;99.90;;;;;;4994043;28;20066;-72
2023/05/26 10:00:12;;;;;;;7.65;5.07;;;22.20;99.90;;;;;;4985380;28;20027;-72
2023/05/26 10:02:39;;;;;;;9.35;6.28;;;22.30;99.90;;;;;;4977900;28;20050;-72
2023/05/26 10:05:06;;;;;;;9.65;5.53;;;22.40;99.90;;;;;;4998652;28;20394;-72
2023/05/26 10:07:33;;;;;;;8.38;5.85;;;22.30;99.90;;;;;;4998130;28;20494;-73
2023/05/26 10:10:00;;;;;;;8.85;6.40;;;22.50;99.90;;;;;;4995609;28;20390;-72
2023/05/26 10:12:31;;;;;;;8.40;5.03;;;22.60;99.90;;;;;;5000005;28;20046;-73
2023/05/26 10:14:57;;;;;;;8.73;5.15;;;22.70;99.90;;;;;;4996873;28;20041;-72
2023/05/26 10:17:25;;;;;;;7.50;5.53;;;22.90;99.90;;;;;;4983487;28;20022;-72
2023/05/26 10:19:52;;;;;;;12.82;6.47;;;22.90;99.90;;;;;;4996461;28;20410;-72
2023/05/26 10:22:37;;;;;;;8.80;5.45;;;23.10;99.90;;;;;;5000055;28;20022;-72
2023/05/26 10:25:34;;;;;;;12.65;5.68;;;23.20;99.90;;;;;;4998546;28;20101;-71
2023/05/26 10:28:32;;;;;;;7.72;5.80;;;23.20;99.90;;;;;;4946609;28;20031;-71
2023/05/26 10:31:00;;;;;;;8.93;5.32;;;23.40;99.90;;;;;;4994419;28;20017;-71
2023/05/26 10:33:38;;;;;;;11.75;5.22;;;23.50;99.90;;;;;;4981110;28;20339;-72
2023/05/26 10:36:07;;;;;;;8.93;5.13;;;23.40;99.90;;;;;;4994988;28;20022;-72
2023/05/26 10:38:37;;;;;;;8.15;4.95;;;23.50;99.90;;;;;;4996286;28;20046;-72
2023/05/26 10:41:08;;;;;;;7.65;5.15;;;23.70;99.90;;;;;;4998995;28;20034;-72
2023/05/26 10:43:33;;;;;;;8.85;4.70;;;23.70;99.90;;;;;;4998224;28;20022;-73
2023/05/26 10:46:03;;;;;;;8.43;4.88;;;23.80;99.90;;;;;;5000609;28;20026;-72
2023/05/26 10:48:37;;;;;;;6.63;4.30;;;23.90;99.90;;;;;;4999691;28;20014;-72
2023/05/26 10:51:08;;;;;;;8.88;4.72;;;23.90;99.90;;;;;;5002145;28;20060;-73
2023/05/26 10:53:42;;;;;;;6.78;4.75;;;24.00;99.90;;;;;;4981084;28;20037;-72
2023/05/26 10:56:08;;;;;;;7.22;5.10;;;24.10;99.90;;;;;;4999695;28;20074;-72
2023/05/26 10:58:36;;;;;;;5.28;4.15;;;24.20;99.90;;;;;;4981733;28;20023;-73
2023/05/26 11:01:04;;;;;;;8.85;4.03;;;24.40;99.90;;;;;;4998705;28;20486;-72
2023/05/26 11:03:35;;;;;;;9.45;4.75;;;24.40;99.90;;;;;;4980500;28;20038;-72
2023/05/26 11:06:01;;;;;;;;;;;24.50;99.90;;;;;;5001916;28;20474;-73
2023/05/26 11:08:37;;;;;;;7.70;4.57;;;24.60;99.90;;;;;;5000756;28;20468;-72
2023/05/26 11:11:05;;;;;;;9.82;4.32;;;24.70;99.90;;;;;;5001524;28;20033;-72
2023/05/26 11:13:47;;;;;;;7.30;3.78;;;24.80;99.90;;;;;;4985154;28;20044;-73
2023/05/26 11:16:18;;;;;;;7.13;4.13;;;24.80;99.90;;;;;;4997293;28;20072;-72
2023/05/26 11:18:57;;;;;;;5.03;3.92;;;25.00;99.90;;;;;;5002587;28;20057;-73
2023/05/26 11:21:27;;;;;;;6.93;5.03;;;24.80;99.90;;;;;;4997489;28;20418;-73
2023/05/26 11:23:57;;;;;;;7.80;4.25;;;24.70;99.90;;;;;;5001503;28;20069;-71
2023/05/26 11:26:26;;;;;;;8.38;4.32;;;24.90;99.90;;;;;;5003138;28;20030;-73
2023/05/26 11:28:52;;;;;;;5.88;4.18;;;25.10;99.90;;;;;;4985510;28;20482;-72
2023/05/26 11:31:20;;;;;;;6.95;4.13;;;25.00;99.90;;;;;;4998264;28;20022;-73
2023/05/26 11:33:47;;;;;;;7.28;4.07;;;24.80;99.90;;;;;;5000763;28;20041;-74
2023/05/26 11:36:15;;;;;;;9.35;4.20;;;25.00;99.90;;;;;;4984533;28;20057;-73
2023/05/26 11:38:42;;;;;;;7.15;4.00;;;25.00;99.90;;;;;;4984324;28;20033;-71
2023/05/26 11:41:10;;;;;;;6.30;4.13;;;24.90;99.90;;;;;;4988405;28;20059;-72
2023/05/26 11:43:37;;;;;;;6.95;3.83;;;25.00;99.90;;;;;;5002117;28;20018;-72
2023/05/26 11:46:10;;;;;;;6.88;3.50;;;25.10;99.90;;;;;;5001111;28;20029;-74
2023/05/26 11:48:39;;;;;;;6.68;3.80;;;25.20;99.90;;;;;;4997479;28;20121;-72
2023/05/26 11:51:13;;;;;;;9.25;4.47;;;25.30;99.90;;;;;;5003837;28;20026;-73
2023/05/26 11:53:40;;;;;;;9.80;4.10;;;25.10;99.90;;;;;;4999495;28;20038;-72
2023/05/26 11:56:07;;;;;;;7.80;4.15;;;25.20;99.90;;;;;;4998628;28;20058;-72
2023/05/26 11:58:37;;;;;;;12.13;4.55;;;25.30;99.90;;;;;;4998125;28;20026;-72
2023/05/26 12:01:05;;;;;;;6.63;4.53;;;25.20;99.90;;;;;;4996290;28;20027;-72
2023/05/26 12:03:35;;;;;;;11.85;4.57;;;25.40;99.90;;;;;;4997899;28;20324;-72
2023/05/26 12:06:18;;;;;;;6.15;4.32;;;25.60;99.90;;;;;;5002552;28;20026;-72
2023/05/26 12:08:43;;;;;;;7.70;4.00;;;25.50;99.90;;;;;;4998049;28;20027;-72
2023/05/26 12:11:17;;;;;;;6.28;3.63;;;25.70;99.90;;;;;;4998439;28;20084;-72
2023/05/26 12:13:43;;;;;;;6.03;4.13;;;25.90;99.90;;;;;;5000922;28;20026;-73
2023/05/26 12:16:31;;;;;;;7.25;3.92;;;25.80;99.90;;;;;;4998318;28;20054;-72
2023/05/26 12:18:59;;;;;;;9.70;3.58;;;25.70;99.90;;;;;;4998978;28;20105;-73
2023/05/26 12:21:27;;;;;;;8.00;4.63;;;25.40;99.90;;;;;;4993528;28;20096;-73
2023/05/26 12:23:55;;;;;;;8.32;4.00;;;25.10;99.90;;;;;;4998443;28;20014;-72
2023/05/26 12:26:23;;;;;;;7.68;3.85;;;25.40;99.90;;;;;;4998466;28;20101;-72
2023/05/26 12:29:06;;;;;;;6.70;4.30;;;25.60;99.90;;;;;;4998527;28;20022;-73
2023/05/26 12:31:52;;;;;;;6.35;4.18;;;25.80;99.90;;;;;;4980856;28;20068;-72
2023/05/26 12:34:23;;;;;;;8.25;4.05;;;26.10;99.90;;;;;;4998453;28;20033;-73
2023/05/26 12:36:50;;;;;;;8.82;3.92;;;26.20;99.90;;;;;;4977537;28;20057;-73